COOK1: Arkansas River Nr Coolidge, KS

                                SHEF ID:       COOK1     ARKANSAS R NR COOLIDGE, KS
STATION TYPE:
Regulating: Stage = 8.00, Flow = 2028

PRECIP STAGE STAGE(2) RIV-FLOW WTR-TEMP CONDUCT BAT-LOAD
in ft ft cfs F umho/cm volt
Ccp-Rev Ccp-Rev Ccp-Rev Ccp-Rev Ccp-Rev Ccp-Rev Ccp-Rev
(America/Chicago)
07/30 00:00 0.00 4.72 4.82 424 81.99 3294 12.95
07/30 01:00 0.00 4.72 4.82 424 81.52 3292 12.95
07/30 02:00 0.00 4.70 4.82 419 80.94 3298 12.89
07/30 03:00 0.00 4.72 4.79 424 80.35 3294 12.89
07/30 04:00 0.00 4.73 4.84 427 79.65 3294 12.89
07/30 05:00 0.00 4.72 4.84 424 78.78 3310 12.83
07/30 06:00 0.00 4.72 4.82 424 77.94 3305 12.83
07/30 07:00 0.00 4.69 4.83 416 77.25 3281 12.83
07/30 08:00 0.00 4.73 4.85 427 76.64 3278 12.83
07/30 09:00 0.00 4.74 4.86 430 76.21 3287 12.89
07/30 10:00 0.00 4.75 4.87 433 76.14 3301 13.07
07/30 11:00 0.00 4.73 4.88 427 76.50 3299 13.53
07/30 12:00 0.00 4.75 4.88 433 77.31 3296 13.71
07/30 13:00 0.00 4.74 4.88 430 78.46 3285 13.77
07/30 14:00 0.00 4.73 4.89 427 79.66 3267 13.71
07/30 15:00 0.00 4.75 4.87 433 81.07 3253 13.59
07/30 16:00 0.00 4.75 4.87 433 82.45 3256 13.48
07/30 17:00 0.00 4.75 4.87 433 83.23 3244 13.77
07/30 18:00 0.00 4.72 4.85 424 83.61 3224 13.30
07/30 19:00 0.00 4.73 4.85 427 83.71 3209 13.12
07/30 20:00 0.00 4.72 4.86 424 83.73 3209 13.12
07/30 21:00 0.00 4.70 4.84 419 83.30 3220 13.07
07/30 22:00 0.00 4.74 4.86 430 82.56 3229 13.00
07/30 23:00 ---- ---- ---- ---- ---- ---- ----
Data processed at Wed 31Jul2024 04:30 GMT

Parsing this webpage?

Checkout our new Data API! CWMSDataAPI (CDA)

Timeseries IDs (TSIDs)

TSIDs used from left to right in the data table
COOL.Precip-Inc.Total.1Hour.1Hour.Ccp-Rev
COOL.Stage.Inst.1Hour.0.Ccp-Rev
COOL.Stage-Alt.Inst.1Hour.0.Ccp-Rev
COOL.Flow.Inst.1Hour.0.Ccp-Rev
COOL.Temp-Water.Inst.1Hour.0.Ccp-Rev
COOL.Cond.Inst.1Hour.0.Ccp-Rev
COOL.Volt-Battery Load.Inst.1Hour.0.Ccp-Rev

                            

All information presented herein is the property of the government of the United States of America and may be revised or deleted at any time without prior notice. Dissemination of this information without the expressed written consent of the Public Affairs Office, Tulsa District U.S. Army Corps of Engineers is strictly prohibited. These data are gathered electronically and, as presented, have NOT undergone any form of quality control. These data are NOT guaranteed to be valid or correct.